createdAt,value
2022-10-06T00:04:46.781Z,100.00
2022-10-06T00:09:50.207Z,100.00
2022-10-06T00:14:53.752Z,100.00
2022-10-06T00:19:58.613Z,100.00
2022-10-06T00:25:02.279Z,100.00
2022-10-06T00:30:07.467Z,100.00
2022-10-06T00:35:12.133Z,100.00
2022-10-06T00:40:15.640Z,100.00
2022-10-06T00:45:22.069Z,100.00
2022-10-06T00:50:27.625Z,100.00
2022-10-06T00:55:31.084Z,100.00
2022-10-06T01:00:35.165Z,100.00
2022-10-06T01:05:46.701Z,100.00
2022-10-06T01:10:50.218Z,100.00
2022-10-06T01:15:57.951Z,100.00
2022-10-06T01:21:10.951Z,100.00
2022-10-06T01:26:19.726Z,100.00
2022-10-06T01:31:23.734Z,100.00
2022-10-06T01:36:27.317Z,100.00
2022-10-06T01:41:33.966Z,100.00
2022-10-06T01:46:38.502Z,100.00
2022-10-06T01:51:42.728Z,100.00
2022-10-06T01:56:47.613Z,100.00
2022-10-06T02:01:51.242Z,100.00
2022-10-06T02:06:55.684Z,100.00
2022-10-06T02:12:00.778Z,100.00
2022-10-06T02:17:05.215Z,100.00
2022-10-06T02:22:09.377Z,100.00
2022-10-06T02:27:14.704Z,100.00
2022-10-06T02:32:18.694Z,100.00
2022-10-06T02:37:22.302Z,100.00
2022-10-06T02:42:27.260Z,100.00
2022-10-06T02:47:32.682Z,100.00
2022-10-06T02:52:41.023Z,100.00
2022-10-06T02:57:45.781Z,100.00
2022-10-06T03:02:49.454Z,100.00
2022-10-06T03:07:53.219Z,100.00
2022-10-06T03:12:58.035Z,100.00
2022-10-06T03:18:01.476Z,100.00
2022-10-06T03:23:04.899Z,100.00
2022-10-06T03:28:09.845Z,100.00
2022-10-06T03:33:13.447Z,100.00
2022-10-06T03:38:16.975Z,100.00
2022-10-06T03:43:21.765Z,100.00
2022-10-06T03:48:25.368Z,100.00
2022-10-06T03:53:30.088Z,100.00
2022-10-06T03:58:36.803Z,100.00
2022-10-06T04:03:40.641Z,100.00
2022-10-06T04:08:46.144Z,100.00
2022-10-06T04:13:54.616Z,100.00
2022-10-06T04:19:00.090Z,100.00
2022-10-06T04:24:05.089Z,100.00
2022-10-06T04:29:10.439Z,100.00
2022-10-06T04:34:14.770Z,100.00
2022-10-06T04:39:20.940Z,100.00
2022-10-06T04:44:25.825Z,100.00
2022-10-06T04:49:31.787Z,100.00
2022-10-06T04:54:35.494Z,100.00
2022-10-06T05:00:05.442Z,100.00
2022-10-06T05:05:11.798Z,100.00
2022-10-06T05:10:15.648Z,100.00
2022-10-06T05:15:21.098Z,100.00
2022-10-06T05:20:26.036Z,100.00
2022-10-06T05:25:30.275Z,100.00
2022-10-06T05:30:35.260Z,100.00
2022-10-06T05:35:38.957Z,100.00
2022-10-06T05:40:42.860Z,100.00
2022-10-06T05:45:59.415Z,100.00
2022-10-06T05:51:06.054Z,100.00
2022-10-06T05:56:13.183Z,100.00
2022-10-06T06:01:21.182Z,100.00
2022-10-06T06:06:27.707Z,100.00
2022-10-06T06:11:35.904Z,100.00
2022-10-06T06:16:42.032Z,100.00
2022-10-06T06:21:45.887Z,100.00
2022-10-06T06:26:49.991Z,100.00
2022-10-06T06:31:55.029Z,100.00
2022-10-06T06:37:03.612Z,100.00
2022-10-06T06:42:10.760Z,100.00
2022-10-06T06:47:27.169Z,100.00
2022-10-06T06:52:32.591Z,100.00
2022-10-06T06:57:37.288Z,100.00
2022-10-06T07:02:42.989Z,100.00
2022-10-06T07:07:48.107Z,100.00
2022-10-06T07:12:51.852Z,94.92
2022-10-06T07:18:13.954Z,90.34
2022-10-06T07:23:37.623Z,89.43
2022-10-06T07:28:44.741Z,90.63
2022-10-06T07:33:52.256Z,92.39
2022-10-06T07:38:56.487Z,86.72
2022-10-06T07:44:01.639Z,85.22
2022-10-06T07:49:11.349Z,80.80
2022-10-06T07:54:16.025Z,81.18
2022-10-06T07:59:38.393Z,76.22
2022-10-06T08:04:43.271Z,78.06
2022-10-06T08:09:46.759Z,77.84
2022-10-06T08:14:50.147Z,74.64
2022-10-06T08:19:55.459Z,76.66
2022-10-06T08:25:06.194Z,77.13
2022-10-06T08:30:12.662Z,75.25
2022-10-06T08:35:17.535Z,72.75
2022-10-06T08:40:21.311Z,71.78
2022-10-06T08:45:32.091Z,71.58
2022-10-06T08:50:52.316Z,69.06
2022-10-06T08:56:04.610Z,71.51
2022-10-06T09:01:18.776Z,70.33
2022-10-06T09:06:42.364Z,66.75
2022-10-06T09:11:56.085Z,67.14
2022-10-06T09:17:04.268Z,66.13
2022-10-06T09:22:17.414Z,69.67
2022-10-06T09:27:23.173Z,68.26
2022-10-06T09:32:28.323Z,71.71
2022-10-06T09:37:53.481Z,74.50
2022-10-06T09:42:57.285Z,71.33
2022-10-06T09:48:13.822Z,65.13
2022-10-06T09:53:18.663Z,63.47
2022-10-06T09:58:26.696Z,63.88
2022-10-06T10:03:51.473Z,66.34
2022-10-06T10:09:25.444Z,65.47
2022-10-06T10:14:37.407Z,59.81
2022-10-06T10:19:42.970Z,65.35
2022-10-06T10:24:57.337Z,65.68
2022-10-06T10:30:09.332Z,63.53
2022-10-06T10:35:23.390Z,59.27
2022-10-06T10:40:32.854Z,58.35
2022-10-06T10:45:41.283Z,56.23
2022-10-06T10:50:51.246Z,53.60
2022-10-06T10:55:56.515Z,55.43
2022-10-06T11:01:06.364Z,55.59
2022-10-06T11:06:28.613Z,56.61
2022-10-06T11:11:59.914Z,55.06
2022-10-06T11:17:12.973Z,54.59
2022-10-06T11:22:24.759Z,54.96
2022-10-06T11:27:39.823Z,54.00
2022-10-06T11:32:58.738Z,53.78
2022-10-06T11:38:11.912Z,52.22
2022-10-06T11:43:24.709Z,51.05
2022-10-06T11:48:30.521Z,50.65
2022-10-06T11:53:41.624Z,49.67
2022-10-06T11:59:10.968Z,50.14
2022-10-06T12:04:19.559Z,48.27
2022-10-06T12:09:32.777Z,49.77
2022-10-06T12:20:19.046Z,48.94
2022-10-06T12:25:29.114Z,47.87
2022-10-06T12:30:54.380Z,49.27
2022-10-06T12:36:03.970Z,50.32
2022-10-06T12:41:11.914Z,49.69
2022-10-06T12:46:23.142Z,49.92
2022-10-06T12:56:42.610Z,47.91
2022-10-06T13:01:48.419Z,49.89
2022-10-06T13:06:52.091Z,49.49
2022-10-06T13:11:55.737Z,48.84
2022-10-06T13:17:03.268Z,48.52
2022-10-06T13:22:07.263Z,49.70
2022-10-06T13:27:18.435Z,48.84
2022-10-06T13:32:26.926Z,49.44
2022-10-06T13:37:30.664Z,51.12
2022-10-06T13:42:34.985Z,51.02
2022-10-06T13:47:40.430Z,51.27
2022-10-06T13:52:48.951Z,50.63
2022-10-06T13:58:09.327Z,50.04
2022-10-06T14:03:24.968Z,48.24
2022-10-06T14:08:29.026Z,50.58
2022-10-06T14:13:39.380Z,49.88
2022-10-06T14:18:46.878Z,51.86
2022-10-06T14:23:52.410Z,51.99
2022-10-06T14:29:16.617Z,51.67
2022-10-06T14:34:23.221Z,50.33
2022-10-06T14:39:28.432Z,51.32
2022-10-06T14:44:32.155Z,52.83
2022-10-06T14:49:38.068Z,53.97
2022-10-06T14:54:42.779Z,56.72
2022-10-06T14:59:46.215Z,54.75
2022-10-06T15:04:51.252Z,55.18
2022-10-06T15:09:54.607Z,60.11
2022-10-06T15:14:58.012Z,61.46
2022-10-06T15:20:02.855Z,65.72
2022-10-06T15:25:07.097Z,67.34
2022-10-06T15:30:11.672Z,68.12
2022-10-06T15:35:16.608Z,69.50
2022-10-06T15:40:20.010Z,74.81
2022-10-06T15:45:23.548Z,79.44
2022-10-06T15:50:29.154Z,78.24
2022-10-06T15:55:32.939Z,79.86
2022-10-06T16:00:36.450Z,87.84
2022-10-06T16:05:51.261Z,88.61
2022-10-06T16:10:56.126Z,91.98
2022-10-06T16:15:59.731Z,96.41
2022-10-06T16:21:04.579Z,94.59
2022-10-06T16:26:08.091Z,97.35
2022-10-06T16:31:11.815Z,100.00
2022-10-06T16:36:18.156Z,100.00
2022-10-06T16:41:22.981Z,100.00
2022-10-06T16:46:29.130Z,100.00
2022-10-06T16:51:36.042Z,100.00
2022-10-06T16:56:41.337Z,100.00
2022-10-06T17:01:45.948Z,100.00
2022-10-06T17:06:52.938Z,100.00
2022-10-06T17:11:58.322Z,100.00
2022-10-06T17:17:02.245Z,100.00
2022-10-06T17:22:07.680Z,100.00
2022-10-06T17:27:11.197Z,100.00
2022-10-06T17:32:15.424Z,100.00
2022-10-06T17:37:21.720Z,100.00
2022-10-06T17:42:25.053Z,100.00
2022-10-06T17:47:29.678Z,100.00
2022-10-06T17:52:35.564Z,100.00
2022-10-06T17:57:40.041Z,100.00
2022-10-06T18:02:43.849Z,100.00
2022-10-06T18:07:49.335Z,100.00
2022-10-06T18:12:52.978Z,100.00
2022-10-06T18:17:56.927Z,100.00
2022-10-06T18:23:06.101Z,100.00
2022-10-06T18:28:10.469Z,100.00
2022-10-06T18:38:41.639Z,100.00
2022-10-06T18:43:48.349Z,100.00
2022-10-06T18:48:58.849Z,100.00
2022-10-06T18:54:06.597Z,100.00
2022-10-06T18:59:13.915Z,100.00
2022-10-06T19:04:20.827Z,100.00
2022-10-06T19:09:27.633Z,100.00
2022-10-06T19:14:32.906Z,100.00
2022-10-06T19:19:36.730Z,100.00
2022-10-06T19:24:43.357Z,100.00
2022-10-06T19:29:50.994Z,100.00
2022-10-06T19:34:57.965Z,100.00
2022-10-06T19:40:03.029Z,100.00
2022-10-06T19:45:07.809Z,100.00
2022-10-06T19:50:12.739Z,100.00
2022-10-06T19:55:23.496Z,100.00
2022-10-06T20:00:27.180Z,100.00
2022-10-06T20:05:30.691Z,100.00
2022-10-06T20:10:35.794Z,100.00
2022-10-06T20:15:39.456Z,100.00
2022-10-06T20:20:44.503Z,100.00
2022-10-06T20:25:50.050Z,100.00
2022-10-06T20:30:54.064Z,100.00
2022-10-06T20:36:01.149Z,100.00
2022-10-06T20:41:07.926Z,100.00
2022-10-06T20:46:15.197Z,100.00
2022-10-06T20:51:24.172Z,100.00
2022-10-06T20:56:34.711Z,100.00
2022-10-06T21:01:40.401Z,100.00
2022-10-06T21:06:45.510Z,100.00
2022-10-06T21:11:50.317Z,100.00
2022-10-06T21:16:54.509Z,100.00
2022-10-06T21:21:58.157Z,100.00
2022-10-06T21:27:03.281Z,100.00
2022-10-06T21:32:06.750Z,100.00
2022-10-06T21:37:10.559Z,100.00
2022-10-06T21:42:15.663Z,100.00
2022-10-06T21:47:19.356Z,100.00
2022-10-06T21:52:23.303Z,100.00
2022-10-06T21:57:28.914Z,100.00
2022-10-06T22:02:32.876Z,100.00
2022-10-06T22:07:36.480Z,100.00
2022-10-06T22:12:42.157Z,100.00
2022-10-06T22:17:47.519Z,100.00
2022-10-06T22:22:52.788Z,100.00
2022-10-06T22:27:57.749Z,100.00
2022-10-06T22:33:01.244Z,100.00
2022-10-06T22:38:04.704Z,100.00
2022-10-06T22:43:09.524Z,100.00
2022-10-06T22:48:13.024Z,100.00
2022-10-06T22:53:16.548Z,100.00
2022-10-06T22:58:21.326Z,100.00
2022-10-06T23:03:27.050Z,100.00
2022-10-06T23:08:35.098Z,100.00
2022-10-06T23:13:40.660Z,100.00
2022-10-06T23:18:45.488Z,100.00
2022-10-06T23:23:50.223Z,100.00
2022-10-06T23:28:56.901Z,100.00
2022-10-06T23:34:00.398Z,100.00
2022-10-06T23:39:03.871Z,100.00
2022-10-06T23:44:08.711Z,100.00
2022-10-06T23:49:12.325Z,100.00
2022-10-06T23:54:15.731Z,100.00
2022-10-06T23:59:21.299Z,100.00
